createdAt,value
2017-11-03T00:00:39.657Z,100768.45
2017-11-03T00:03:07.988Z,100772.78
2017-11-03T00:05:36.326Z,100772.75
2017-11-03T00:08:04.641Z,100775.70
2017-11-03T00:10:32.954Z,100774.57
2017-11-03T00:13:01.295Z,100769.18
2017-11-03T00:15:29.632Z,100762.35
2017-11-03T00:17:58.716Z,100771.00
2017-11-03T00:20:27.044Z,100767.29
2017-11-03T00:22:55.353Z,100768.67
2017-11-03T00:25:23.680Z,100765.36
2017-11-03T00:27:52.757Z,100767.77
2017-11-03T00:30:21.068Z,100773.20
2017-11-03T00:32:49.386Z,100772.94
2017-11-03T00:35:17.705Z,100775.13
2017-11-03T00:37:46.770Z,100779.51
2017-11-03T00:40:15.086Z,100782.55
2017-11-03T00:42:43.385Z,100779.81
2017-11-03T00:45:11.691Z,100778.98
2017-11-03T00:47:40.025Z,100789.13
2017-11-03T00:50:08.325Z,100794.42
2017-11-03T00:52:36.622Z,100793.20
2017-11-03T00:55:04.955Z,100793.32
2017-11-03T00:57:33.269Z,100796.21
2017-11-03T01:00:01.602Z,100801.94
2017-11-03T01:02:29.908Z,100801.02
2017-11-03T01:04:58.229Z,100808.02
2017-11-03T01:07:26.533Z,100810.93
2017-11-03T01:09:55.617Z,100813.32
2017-11-03T01:12:24.677Z,100813.41
2017-11-03T01:14:52.996Z,100816.37
2017-11-03T01:17:22.053Z,100819.06
2017-11-03T01:19:50.424Z,100822.52
2017-11-03T01:22:18.741Z,100822.62
2017-11-03T01:24:47.812Z,100821.88
2017-11-03T01:27:16.127Z,100816.88
2017-11-03T01:29:44.427Z,100819.20
2017-11-03T01:32:12.757Z,100818.29
2017-11-03T01:34:41.055Z,100814.36
2017-11-03T01:37:09.361Z,100823.95
2017-11-03T01:39:37.654Z,100817.64
2017-11-03T01:42:05.972Z,100815.61
2017-11-03T01:44:35.052Z,100823.74
2017-11-03T01:47:03.357Z,100825.61
2017-11-03T01:49:31.660Z,100815.98
2017-11-03T01:51:59.981Z,100822.33
2017-11-03T01:54:28.326Z,100820.75
2017-11-03T01:56:56.642Z,100822.39
2017-11-03T01:59:24.944Z,100828.46
2017-11-03T02:01:53.263Z,100832.01
2017-11-03T02:04:21.583Z,100830.86
2017-11-03T02:06:50.657Z,100833.58
2017-11-03T02:09:18.968Z,100833.70
2017-11-03T02:11:48.045Z,100835.05
2017-11-03T02:14:17.136Z,100829.54
2017-11-03T02:16:45.459Z,100834.13
2017-11-03T02:19:13.757Z,100840.77
2017-11-03T02:21:42.061Z,100843.05
2017-11-03T02:24:10.378Z,100837.53
2017-11-03T02:26:38.681Z,100842.22
2017-11-03T02:29:06.995Z,100847.53
2017-11-03T02:31:35.313Z,100842.77
2017-11-03T02:34:03.608Z,100847.42
2017-11-03T02:36:31.929Z,100847.22
2017-11-03T02:39:00.246Z,100845.86
2017-11-03T02:41:28.553Z,100854.16
2017-11-03T02:43:56.848Z,100857.98
2017-11-03T02:46:25.170Z,100859.92
2017-11-03T02:48:53.480Z,100860.47
2017-11-03T02:51:21.797Z,100859.61
2017-11-03T02:53:50.871Z,100862.91
2017-11-03T02:56:19.203Z,100867.02
2017-11-03T02:58:47.510Z,100868.41
2017-11-03T03:01:15.839Z,100875.64
2017-11-03T03:03:44.918Z,100871.20
2017-11-03T03:06:13.235Z,100872.02
2017-11-03T03:08:41.611Z,100865.63
2017-11-03T03:11:09.996Z,100872.29
2017-11-03T03:13:38.315Z,100866.20
2017-11-03T03:16:06.642Z,100869.16
2017-11-03T03:18:34.952Z,100871.05
2017-11-03T03:21:03.279Z,100872.84
2017-11-03T03:23:32.368Z,100874.33
2017-11-03T03:26:01.502Z,100872.14
2017-11-03T03:28:29.815Z,100875.29
2017-11-03T03:30:58.139Z,100879.40
2017-11-03T03:33:26.450Z,100875.69
2017-11-03T03:35:54.777Z,100878.67
2017-11-03T03:38:23.867Z,100878.07
2017-11-03T03:40:52.938Z,100890.84
2017-11-03T03:43:21.257Z,100889.39
2017-11-03T03:45:49.567Z,100893.02
2017-11-03T03:48:17.898Z,100893.57
2017-11-03T03:50:46.229Z,100892.58
2017-11-03T03:53:14.567Z,100893.27
2017-11-03T03:55:42.895Z,100900.62
2017-11-03T03:58:11.222Z,100897.03
2017-11-03T04:00:40.297Z,100900.58
2017-11-03T04:03:09.383Z,100907.78
2017-11-03T04:05:37.693Z,100898.98
2017-11-03T04:08:06.029Z,100902.86
2017-11-03T04:10:34.339Z,100904.73
2017-11-03T04:13:03.424Z,100911.09
2017-11-03T04:15:31.765Z,100910.03
2017-11-03T04:18:00.085Z,100909.18
2017-11-03T04:20:29.168Z,100908.17
2017-11-03T04:22:57.490Z,100906.55
2017-11-03T04:25:25.822Z,100913.30
2017-11-03T04:27:54.177Z,100907.79
2017-11-03T04:30:22.490Z,100909.09
2017-11-03T04:32:51.582Z,100903.30
2017-11-03T04:35:20.715Z,100900.48
2017-11-03T04:37:49.070Z,100906.02
2017-11-03T04:40:17.386Z,100904.73
2017-11-03T04:42:45.714Z,100909.25
2017-11-03T04:45:14.786Z,100916.85
2017-11-03T04:47:43.102Z,100905.28
2017-11-03T04:50:11.419Z,100911.03
2017-11-03T04:52:39.742Z,100906.20
2017-11-03T04:55:08.819Z,100906.12
2017-11-03T04:57:37.131Z,100904.05
2017-11-03T05:00:05.447Z,100905.91
2017-11-03T05:02:33.772Z,100899.89
2017-11-03T05:05:02.870Z,100899.68
2017-11-03T05:07:31.942Z,100900.66
2017-11-03T05:10:00.261Z,100898.59
2017-11-03T05:12:28.566Z,100909.73
2017-11-03T05:14:56.894Z,100911.31
2017-11-03T05:17:25.994Z,100909.31
2017-11-03T05:19:55.069Z,100906.62
2017-11-03T05:22:23.381Z,100910.16
2017-11-03T05:24:51.713Z,100909.13
2017-11-03T05:27:20.017Z,100911.31
2017-11-03T05:29:49.104Z,100912.05
2017-11-03T05:32:18.180Z,100912.56
2017-11-03T05:34:46.506Z,100923.61
2017-11-03T05:37:14.810Z,100915.61
2017-11-03T05:39:43.134Z,100919.09
2017-11-03T05:42:11.434Z,100916.34
2017-11-03T05:44:39.765Z,100922.73
2017-11-03T05:47:08.088Z,100926.77
2017-11-03T05:49:36.406Z,100928.85
2017-11-03T05:52:04.768Z,100930.42
2017-11-03T05:54:33.085Z,100936.27
2017-11-03T05:57:01.385Z,100936.55
2017-11-03T05:59:30.462Z,100941.52
2017-11-03T06:01:58.762Z,100940.64
2017-11-03T06:04:27.082Z,100940.21
2017-11-03T06:06:55.411Z,100947.88
2017-11-03T06:09:24.490Z,100956.84
2017-11-03T06:11:52.790Z,100951.60
2017-11-03T06:14:21.123Z,100957.65
2017-11-03T06:16:49.451Z,100955.17
2017-11-03T06:19:17.798Z,100947.92
2017-11-03T06:21:46.106Z,100955.55
2017-11-03T06:24:14.433Z,100958.83
2017-11-03T06:26:43.562Z,100965.05
2017-11-03T06:29:12.646Z,100959.81
2017-11-03T06:31:40.946Z,100964.25
2017-11-03T06:34:09.285Z,100963.13
2017-11-03T06:36:37.590Z,100968.36
2017-11-03T06:39:06.671Z,100968.87
2017-11-03T06:41:34.970Z,100963.98
2017-11-03T06:44:04.050Z,100982.34
2017-11-03T06:46:33.119Z,100980.23
2017-11-03T06:49:01.436Z,100981.91
2017-11-03T06:51:30.518Z,100983.03
2017-11-03T06:53:59.601Z,100979.89
2017-11-03T06:56:27.902Z,100982.00
2017-11-03T06:58:56.974Z,100978.67
2017-11-03T07:01:25.282Z,100979.31
2017-11-03T07:03:53.598Z,100983.88
2017-11-03T07:06:21.908Z,100989.77
2017-11-03T07:08:50.210Z,100992.97
2017-11-03T07:11:19.282Z,100998.22
2017-11-03T07:13:47.579Z,100994.67
2017-11-03T07:16:16.654Z,100994.59
2017-11-03T07:18:44.958Z,101003.01
2017-11-03T07:21:13.295Z,101003.84
2017-11-03T07:23:41.631Z,101011.94
2017-11-03T07:26:09.953Z,101007.86
2017-11-03T07:28:38.257Z,101008.33
2017-11-03T07:31:07.337Z,101010.86
2017-11-03T07:33:35.630Z,101012.90
2017-11-03T07:36:04.708Z,101011.47
2017-11-03T07:38:33.011Z,101011.86
2017-11-03T07:41:01.348Z,101008.03
2017-11-03T07:43:29.653Z,101014.50
2017-11-03T07:45:58.740Z,101015.03
2017-11-03T07:48:28.632Z,101012.56
2017-11-03T07:50:56.958Z,101013.72
2017-11-03T07:53:25.274Z,101011.80
2017-11-03T07:55:54.207Z,101013.25
2017-11-03T07:58:23.293Z,101015.96
2017-11-03T08:00:51.605Z,101015.58
2017-11-03T08:03:19.914Z,101018.31
2017-11-03T08:05:48.225Z,101024.47
2017-11-03T08:08:16.550Z,101021.29
2017-11-03T08:10:44.869Z,101025.98
2017-11-03T08:13:13.186Z,101030.84
2017-11-03T08:15:41.514Z,101034.02
2017-11-03T08:18:09.819Z,101031.38
2017-11-03T08:20:38.913Z,101028.54
2017-11-03T08:23:08.002Z,101033.91
2017-11-03T08:25:36.324Z,101032.53
2017-11-03T08:28:04.641Z,101034.00
2017-11-03T08:30:32.958Z,101029.18
2017-11-03T08:33:01.270Z,101026.03
2017-11-03T08:35:29.585Z,101033.92
2017-11-03T08:37:57.890Z,101031.14
2017-11-03T08:40:26.217Z,101036.28
2017-11-03T08:42:54.530Z,101041.39
2017-11-03T08:45:23.617Z,101049.79
2017-11-03T08:47:51.934Z,101053.73
2017-11-03T08:50:20.262Z,101052.65
2017-11-03T08:52:48.575Z,101047.20
2017-11-03T08:55:16.946Z,101046.47
2017-11-03T08:57:46.014Z,101051.20
2017-11-03T09:00:14.330Z,101054.25
2017-11-03T09:02:42.638Z,101059.98
2017-11-03T09:05:10.954Z,101055.41
2017-11-03T09:07:39.272Z,101056.17
2017-11-03T09:10:07.600Z,101063.28
2017-11-03T09:12:35.939Z,101058.36
2017-11-03T09:15:04.254Z,101066.36
2017-11-03T09:17:32.563Z,101057.75
2017-11-03T09:20:01.643Z,101067.19
2017-11-03T09:22:30.759Z,101070.81
2017-11-03T09:24:59.074Z,101059.95
2017-11-03T09:27:27.402Z,101052.95
2017-11-03T09:29:55.734Z,101052.27
2017-11-03T09:32:24.058Z,101047.00
2017-11-03T09:34:53.138Z,101051.23
2017-11-03T09:37:21.459Z,101046.16
2017-11-03T09:39:49.782Z,101050.86
2017-11-03T09:42:18.125Z,101052.58
2017-11-03T09:44:46.438Z,101045.00
2017-11-03T09:47:14.776Z,101043.77
2017-11-03T09:49:43.087Z,101041.83
2017-11-03T09:52:11.426Z,101046.69
2017-11-03T09:54:39.730Z,101044.66
2017-11-03T09:57:08.058Z,101042.73
2017-11-03T09:59:36.374Z,101040.39
2017-11-03T10:02:04.686Z,101042.42
2017-11-03T10:04:33.008Z,101045.33
2017-11-03T10:07:01.339Z,101049.58
2017-11-03T10:09:29.646Z,101040.93
2017-11-03T10:11:57.973Z,101042.09
2017-11-03T10:14:26.318Z,101039.18
2017-11-03T10:16:54.638Z,101041.75
2017-11-03T10:19:22.953Z,101035.23
2017-11-03T10:21:52.043Z,101036.33
2017-11-03T10:24:21.110Z,101035.73
2017-11-03T10:26:49.438Z,101030.26
2017-11-03T10:29:17.757Z,101039.27
2017-11-03T10:31:46.073Z,101041.32
2017-11-03T10:34:14.397Z,101036.00
2017-11-03T10:36:42.715Z,101037.91
2017-11-03T10:39:11.787Z,101023.81
2017-11-03T10:41:40.118Z,101024.19
2017-11-03T10:44:08.434Z,101025.97
2017-11-03T10:46:36.785Z,101021.86
2017-11-03T10:49:05.094Z,101022.81
2017-11-03T10:51:33.419Z,101016.66
2017-11-03T10:54:01.743Z,101012.54
2017-11-03T10:56:30.062Z,101013.67
2017-11-03T10:58:59.128Z,101010.95
2017-11-03T11:01:27.452Z,101018.05
2017-11-03T11:03:55.765Z,101010.70
2017-11-03T11:06:24.089Z,101013.53
2017-11-03T11:08:53.161Z,101011.30
2017-11-03T11:11:21.482Z,101011.37
2017-11-03T11:13:49.810Z,101004.77
2017-11-03T11:16:18.131Z,101009.36
2017-11-03T11:18:46.441Z,101008.53
2017-11-03T11:21:14.786Z,101014.03
2017-11-03T11:23:43.106Z,101003.44
2017-11-03T11:26:11.421Z,101003.66
2017-11-03T11:28:40.490Z,101001.09
2017-11-03T11:31:08.793Z,101000.81
2017-11-03T11:33:37.877Z,101004.11
2017-11-03T11:36:06.229Z,101003.59
2017-11-03T11:38:34.547Z,101008.59
2017-11-03T11:41:03.622Z,101001.92
2017-11-03T11:43:31.933Z,100995.09
2017-11-03T11:46:00.259Z,100998.19
2017-11-03T11:48:28.574Z,100992.50
2017-11-03T11:50:57.646Z,100992.42
2017-11-03T11:53:25.970Z,100993.48
2017-11-03T11:55:54.282Z,100992.42
2017-11-03T11:58:22.597Z,100988.44
2017-11-03T12:00:51.670Z,100984.87
2017-11-03T12:03:19.989Z,100983.18
2017-11-03T12:05:48.294Z,100985.25
2017-11-03T12:08:16.605Z,100982.17
2017-11-03T12:10:44.918Z,100982.98
2017-11-03T12:13:13.237Z,100977.35
2017-11-03T12:15:41.548Z,100979.19
2017-11-03T12:18:10.635Z,100978.83
2017-11-03T12:20:38.961Z,100975.08
2017-11-03T12:23:07.289Z,100972.30
2017-11-03T12:25:35.598Z,100966.98
2017-11-03T12:28:03.906Z,100965.24
2017-11-03T12:30:32.214Z,100958.20
2017-11-03T12:33:00.536Z,100961.77
2017-11-03T12:35:28.861Z,100960.56
2017-11-03T12:37:57.182Z,100958.92
2017-11-03T12:40:26.254Z,100950.84
2017-11-03T12:42:54.586Z,100955.09
2017-11-03T12:45:22.898Z,100953.84
2017-11-03T12:47:51.221Z,100950.34
2017-11-03T12:50:19.538Z,100946.28
2017-11-03T12:52:47.856Z,100942.02
2017-11-03T12:55:16.934Z,100938.10
2017-11-03T12:57:45.246Z,100938.95
2017-11-03T13:00:13.596Z,100940.39
2017-11-03T13:02:42.671Z,100930.64
2017-11-03T13:05:11.000Z,100938.86
2017-11-03T13:07:40.310Z,100936.53
2017-11-03T13:10:08.627Z,100931.11
2017-11-03T13:12:36.950Z,100931.67
2017-11-03T13:15:05.266Z,100927.77
2017-11-03T13:17:33.590Z,100925.79
2017-11-03T13:20:02.682Z,100928.17
2017-11-03T13:22:30.998Z,100934.27
2017-11-03T13:24:59.322Z,100936.84
2017-11-03T13:27:27.618Z,100925.31
2017-11-03T13:29:56.698Z,100921.48
2017-11-03T13:32:25.773Z,100923.15
2017-11-03T13:34:54.136Z,100928.91
2017-11-03T13:37:22.441Z,100924.97
2017-11-03T13:39:50.762Z,100926.06
2017-11-03T13:42:19.066Z,100928.91
2017-11-03T13:44:47.407Z,100922.55
2017-11-03T13:47:15.710Z,100921.03
2017-11-03T13:49:44.025Z,100924.41
2017-11-03T13:52:12.326Z,100930.48
2017-11-03T13:54:41.411Z,100932.70
2017-11-03T13:57:10.486Z,100932.74
2017-11-03T13:59:38.813Z,100929.77
2017-11-03T14:02:07.126Z,100936.16
2017-11-03T14:04:35.446Z,100935.88
2017-11-03T14:07:04.514Z,100928.89
2017-11-03T14:09:32.830Z,100930.95
2017-11-03T14:12:01.138Z,100930.00
2017-11-03T14:14:29.448Z,100929.42
2017-11-03T14:16:57.749Z,100924.12
2017-11-03T14:19:26.834Z,100922.91
2017-11-03T14:21:55.141Z,100924.71
2017-11-03T14:24:23.451Z,100926.64
2017-11-03T14:26:51.770Z,100932.06
2017-11-03T14:29:20.859Z,100924.38
2017-11-03T14:31:49.193Z,100924.09
2017-11-03T14:34:17.520Z,100916.41
2017-11-03T14:36:46.594Z,100915.77
2017-11-03T14:39:14.906Z,100916.62
2017-11-03T14:41:43.981Z,100915.42
2017-11-03T14:44:12.294Z,100919.66
2017-11-03T14:46:41.373Z,100914.98
2017-11-03T14:49:09.698Z,100916.15
2017-11-03T14:51:37.998Z,100911.87
2017-11-03T14:54:06.307Z,100911.39
2017-11-03T14:56:34.626Z,100913.30
2017-11-03T14:59:02.985Z,100909.80
2017-11-03T15:01:31.312Z,100900.73
2017-11-03T15:03:59.622Z,100908.05
2017-11-03T15:06:27.939Z,100901.28
2017-11-03T15:08:56.246Z,100897.14
2017-11-03T15:11:24.553Z,100904.98
2017-11-03T15:13:52.859Z,100900.84
2017-11-03T15:16:21.194Z,100900.72
2017-11-03T15:18:50.274Z,100905.61
2017-11-03T15:21:18.600Z,100892.56
2017-11-03T15:23:46.914Z,100894.23
2017-11-03T15:26:15.233Z,100892.89
2017-11-03T15:28:43.585Z,100889.38
2017-11-03T15:31:11.904Z,100895.16
2017-11-03T15:33:40.210Z,100894.22
2017-11-03T15:36:08.530Z,100888.31
2017-11-03T15:38:37.604Z,100891.24
2017-11-03T15:41:05.919Z,100887.41
2017-11-03T15:43:34.225Z,100884.32
2017-11-03T15:46:02.547Z,100884.27
2017-11-03T15:48:30.857Z,100882.14
2017-11-03T15:50:59.171Z,100882.26
2017-11-03T15:53:27.483Z,100878.75
2017-11-03T15:55:56.573Z,100880.26
2017-11-03T15:58:24.881Z,100878.39
2017-11-03T16:00:53.198Z,100885.30
2017-11-03T16:03:21.514Z,100881.55
2017-11-03T16:05:50.601Z,100877.76
2017-11-03T16:08:18.925Z,100874.83
2017-11-03T16:10:47.245Z,100877.45
2017-11-03T16:13:15.550Z,100878.63
2017-11-03T16:15:44.638Z,100887.23
2017-11-03T16:18:13.722Z,100886.52
2017-11-03T16:20:42.050Z,100880.02
2017-11-03T16:23:10.364Z,100878.14
2017-11-03T16:25:38.696Z,100872.42
2017-11-03T16:28:07.027Z,100867.68
2017-11-03T16:30:35.362Z,100870.47
2017-11-03T16:33:03.670Z,100871.70
2017-11-03T16:35:31.995Z,100875.66
2017-11-03T16:38:00.308Z,100867.14
2017-11-03T16:40:28.642Z,100863.53
2017-11-03T16:42:57.721Z,100869.08
2017-11-03T16:45:26.810Z,100862.92
2017-11-03T16:47:55.136Z,100878.47
2017-11-03T16:50:23.456Z,100883.35
2017-11-03T16:52:51.778Z,100886.53
2017-11-03T16:55:20.086Z,100886.99
2017-11-03T16:57:48.411Z,100879.56
2017-11-03T17:00:20.463Z,100887.43
2017-11-03T17:02:49.581Z,100883.95
2017-11-03T17:05:18.652Z,100878.41
2017-11-03T17:07:47.749Z,100880.39
2017-11-03T17:10:16.831Z,100879.37
2017-11-03T17:12:45.158Z,100885.45
2017-11-03T17:15:13.473Z,100884.42
2017-11-03T17:17:42.568Z,100891.09
2017-11-03T17:20:10.902Z,100886.16
2017-11-03T17:22:39.228Z,100881.63
2017-11-03T17:25:07.543Z,100882.30
2017-11-03T17:27:36.626Z,100874.45
2017-11-03T17:30:05.707Z,100877.89
2017-11-03T17:32:34.056Z,100874.23
2017-11-03T17:35:02.394Z,100866.98
2017-11-03T17:37:31.503Z,100865.73
2017-11-03T17:39:59.816Z,100869.06
2017-11-03T17:42:28.158Z,100863.94
2017-11-03T17:44:56.473Z,100867.22
2017-11-03T17:47:24.794Z,100865.13
2017-11-03T17:49:53.884Z,100875.03
2017-11-03T17:52:22.986Z,100869.42
2017-11-03T17:54:52.054Z,100862.55
2017-11-03T17:57:20.370Z,100865.66
2017-11-03T17:59:48.675Z,100860.90
2017-11-03T18:02:17.043Z,100860.05
2017-11-03T18:04:45.362Z,100864.90
2017-11-03T18:07:13.676Z,100859.59
2017-11-03T18:09:41.995Z,100854.85
2017-11-03T18:12:10.359Z,100852.41
2017-11-03T18:14:38.666Z,100849.89
2017-11-03T18:17:06.970Z,100855.13
2017-11-03T18:19:36.064Z,100851.66
2017-11-03T18:22:05.138Z,100854.41
2017-11-03T18:24:33.482Z,100850.18
2017-11-03T18:27:01.819Z,100852.28
2017-11-03T18:29:30.925Z,100852.59
2017-11-03T18:31:59.230Z,100844.09
2017-11-03T18:34:27.544Z,100847.66
2017-11-03T18:36:55.908Z,100845.19
2017-11-03T18:39:24.245Z,100843.30
2017-11-03T18:41:52.552Z,100844.36
2017-11-03T18:44:21.633Z,100842.29
2017-11-03T18:46:49.949Z,100839.59
2017-11-03T18:49:18.332Z,100837.13
2017-11-03T18:51:46.640Z,100837.84
2017-11-03T18:54:14.999Z,100834.63
2017-11-03T18:56:43.361Z,100828.30
2017-11-03T18:59:11.678Z,100831.30
2017-11-03T19:01:40.032Z,100826.53
2017-11-03T19:04:08.358Z,100829.95
2017-11-03T19:06:36.690Z,100828.49
2017-11-03T19:09:05.774Z,100824.45
2017-11-03T19:11:34.121Z,100823.41
2017-11-03T19:14:02.431Z,100829.56
2017-11-03T19:16:30.743Z,100829.23
2017-11-03T19:18:59.078Z,100836.31
2017-11-03T19:21:27.399Z,100834.75
2017-11-03T19:23:55.722Z,100834.64
2017-11-03T19:26:24.036Z,100820.95
2017-11-03T19:28:53.181Z,100830.48
2017-11-03T19:31:21.510Z,100832.99
2017-11-03T19:33:50.655Z,100828.11
2017-11-03T19:36:18.954Z,100832.99
2017-11-03T19:38:47.332Z,100830.70
2017-11-03T19:41:15.639Z,100823.73
2017-11-03T19:43:44.724Z,100825.72
2017-11-03T19:46:13.036Z,100827.37
2017-11-03T19:48:41.389Z,100827.97
2017-11-03T19:51:10.477Z,100828.49
2017-11-03T19:53:39.572Z,100824.44
2017-11-03T19:56:08.654Z,100821.09
2017-11-03T19:58:36.963Z,100826.20
2017-11-03T20:01:06.101Z,100820.69
2017-11-03T20:03:34.462Z,100824.13
2017-11-03T20:06:02.857Z,100823.91
2017-11-03T20:08:31.223Z,100818.84
2017-11-03T20:10:59.607Z,100832.95
2017-11-03T20:13:27.952Z,100824.85
2017-11-03T20:15:56.338Z,100816.75
2017-11-03T20:18:24.721Z,100822.48
2017-11-03T20:20:53.099Z,100821.62
2017-11-03T20:23:21.409Z,100825.79
2017-11-03T20:25:49.778Z,100819.27
2017-11-03T20:28:18.087Z,100814.88
2017-11-03T20:30:46.467Z,100819.34
2017-11-03T20:33:14.792Z,100824.25
2017-11-03T20:35:43.179Z,100825.59
2017-11-03T20:38:11.478Z,100829.42
2017-11-03T20:40:39.853Z,100825.38
2017-11-03T20:43:08.180Z,100826.61
2017-11-03T20:45:37.275Z,100826.30
2017-11-03T20:48:05.641Z,100828.67
2017-11-03T20:50:34.751Z,100815.28
2017-11-03T20:53:03.078Z,100819.97
2017-11-03T20:55:31.391Z,100821.31
2017-11-03T20:58:00.485Z,100819.33
2017-11-03T21:00:29.635Z,100811.34
2017-11-03T21:02:57.945Z,100811.64
2017-11-03T21:05:26.275Z,100814.44
2017-11-03T21:07:54.646Z,100813.39
2017-11-03T21:10:22.961Z,100814.62
2017-11-03T21:12:51.354Z,100811.31
2017-11-03T21:15:19.691Z,100812.44
2017-11-03T21:17:48.049Z,100817.31
2017-11-03T21:20:17.189Z,100819.29
2017-11-03T21:22:45.566Z,100811.60
2017-11-03T21:25:13.921Z,100823.40
2017-11-03T21:27:42.283Z,100802.05
2017-11-03T21:30:10.641Z,100797.59
2017-11-03T21:32:39.005Z,100800.70
2017-11-03T21:35:07.358Z,100797.47
2017-11-03T21:37:35.746Z,100795.59
2017-11-03T21:40:04.866Z,100797.98
2017-11-03T21:42:33.198Z,100801.69
2017-11-03T21:45:01.571Z,100797.42
2017-11-03T21:47:29.883Z,100795.31
2017-11-03T21:49:58.195Z,100795.20
2017-11-03T21:52:27.338Z,100789.20
2017-11-03T21:54:55.698Z,100793.37
2017-11-03T21:57:24.014Z,100799.38
2017-11-03T21:59:52.381Z,100793.17
2017-11-03T22:02:20.745Z,100794.94
2017-11-03T22:04:49.047Z,100795.16
2017-11-03T22:07:17.415Z,100789.13
2017-11-03T22:09:45.721Z,100787.47
2017-11-03T22:12:14.087Z,100783.00
2017-11-03T22:14:42.402Z,100784.13
2017-11-03T22:17:10.726Z,100784.88
2017-11-03T22:19:39.080Z,100785.07
2017-11-03T22:22:07.950Z,100778.45
2017-11-03T22:24:36.262Z,100778.97
2017-11-03T22:27:05.478Z,100778.31
2017-11-03T22:29:33.822Z,100781.72
2017-11-03T22:32:02.192Z,100777.90
2017-11-03T22:34:30.567Z,100776.78
2017-11-03T22:36:58.929Z,100775.33
2017-11-03T22:39:28.014Z,100775.44
2017-11-03T22:41:56.316Z,100769.41
2017-11-03T22:44:24.687Z,100757.46
2017-11-03T22:46:53.006Z,100759.55
2017-11-03T22:49:21.337Z,100762.25
2017-11-03T22:51:50.402Z,100762.55
2017-11-03T22:54:18.722Z,100754.69
2017-11-03T22:56:47.030Z,100760.80
2017-11-03T23:01:50.678Z,100754.15
2017-11-03T23:04:19.087Z,100747.07
2017-11-03T23:06:47.410Z,100749.23
2017-11-03T23:09:15.747Z,100740.84
2017-11-03T23:11:44.074Z,100740.20
2017-11-03T23:14:12.445Z,100740.42
2017-11-03T23:16:40.750Z,100734.80
2017-11-03T23:19:09.118Z,100724.86
2017-11-03T23:21:37.431Z,100731.07
2017-11-03T23:24:06.515Z,100724.11
2017-11-03T23:26:35.586Z,100721.66
2017-11-03T23:29:03.903Z,100721.23
2017-11-03T23:31:32.232Z,100724.40
2017-11-03T23:34:00.599Z,100723.98
2017-11-03T23:36:28.905Z,100725.70
2017-11-03T23:38:57.219Z,100729.73
2017-11-03T23:41:25.533Z,100722.58
2017-11-03T23:43:53.857Z,100710.73
2017-11-03T23:46:22.957Z,100705.99
2017-11-03T23:48:52.038Z,100706.91
2017-11-03T23:51:20.346Z,100696.11
2017-11-03T23:53:48.672Z,100701.92
2017-11-03T23:56:16.997Z,100698.81
2017-11-03T23:58:45.325Z,100705.42
